createdAt,value
2018-12-05T00:00:00.718Z,2.61
2018-12-05T00:02:28.534Z,2.72
2018-12-05T00:04:55.965Z,2.72
2018-12-05T00:07:23.363Z,2.76
2018-12-05T00:12:28.602Z,2.77
2018-12-05T00:14:55.974Z,2.81
2018-12-05T00:17:23.373Z,2.74
2018-12-05T00:19:50.795Z,2.73
2018-12-05T00:22:18.177Z,2.76
2018-12-05T00:24:45.593Z,2.84
2018-12-05T00:27:12.919Z,2.87
2018-12-05T00:29:40.919Z,3.01
2018-12-05T00:32:09.002Z,3.01
2018-12-05T00:34:36.393Z,3.08
2018-12-05T00:37:04.374Z,3.07
2018-12-05T00:39:31.804Z,3.10
2018-12-05T00:41:59.183Z,3.09
2018-12-05T00:44:26.598Z,2.99
2018-12-05T00:46:54.008Z,2.92
2018-12-05T00:49:21.375Z,2.85
2018-12-05T00:51:48.740Z,2.83
2018-12-05T00:54:16.137Z,2.94
2018-12-05T00:56:43.548Z,2.90
2018-12-05T00:59:10.984Z,2.85
2018-12-05T01:01:38.522Z,2.80
2018-12-05T01:04:06.943Z,2.82
2018-12-05T01:06:34.403Z,2.86
2018-12-05T01:09:01.883Z,2.87
2018-12-05T01:11:29.267Z,2.85
2018-12-05T01:13:56.604Z,2.84
2018-12-05T01:16:24.074Z,2.79
2018-12-05T01:18:51.457Z,2.88
2018-12-05T01:21:19.503Z,2.85
2018-12-05T01:23:47.006Z,2.82
2018-12-05T01:26:14.385Z,2.78
2018-12-05T01:28:41.862Z,2.81
2018-12-05T01:31:09.484Z,2.82
2018-12-05T01:33:37.524Z,2.82
2018-12-05T01:36:04.903Z,2.79
2018-12-05T01:38:32.863Z,2.80
2018-12-05T01:41:00.207Z,2.86
2018-12-05T01:43:32.098Z,2.78
2018-12-05T01:45:59.430Z,2.80
2018-12-05T01:48:27.589Z,2.91
2018-12-05T01:50:54.944Z,2.93
2018-12-05T01:53:22.267Z,2.87
2018-12-05T01:55:49.629Z,2.85
2018-12-05T01:58:16.998Z,2.97
2018-12-05T02:00:44.923Z,2.94
2018-12-05T02:03:12.368Z,2.92
2018-12-05T02:05:40.367Z,2.96
2018-12-05T02:08:18.018Z,2.94
2018-12-05T02:10:45.381Z,2.89
2018-12-05T02:13:12.825Z,2.93
2018-12-05T02:15:40.285Z,2.88
2018-12-05T02:18:08.228Z,2.87
2018-12-05T02:20:35.654Z,2.88
2018-12-05T02:23:03.040Z,2.79
2018-12-05T02:25:30.417Z,2.75
2018-12-05T02:27:57.767Z,2.70
2018-12-05T02:30:25.874Z,2.76
2018-12-05T02:32:54.062Z,2.76
2018-12-05T02:35:22.153Z,2.77
2018-12-05T02:37:49.603Z,2.78
2018-12-05T02:40:17.064Z,2.78
2018-12-05T02:42:44.455Z,2.80
2018-12-05T02:45:11.878Z,2.81
2018-12-05T02:47:39.294Z,2.83
2018-12-05T02:50:06.938Z,2.84
2018-12-05T02:52:34.404Z,2.93
2018-12-05T02:55:01.808Z,2.96
2018-12-05T02:57:29.178Z,2.96
2018-12-05T02:59:56.688Z,2.99
2018-12-05T03:02:24.078Z,3.03
2018-12-05T03:04:51.503Z,3.06
2018-12-05T03:07:18.949Z,3.13
2018-12-05T03:09:47.137Z,3.19
2018-12-05T03:12:14.490Z,3.17
2018-12-05T03:14:41.881Z,3.18
2018-12-05T03:17:09.243Z,3.20
2018-12-05T03:19:36.629Z,3.22
2018-12-05T03:22:04.169Z,3.20
2018-12-05T03:24:31.556Z,3.13
2018-12-05T03:26:58.944Z,3.03
2018-12-05T03:29:26.300Z,3.01
2018-12-05T03:31:53.686Z,2.94
2018-12-05T03:34:21.068Z,2.90
2018-12-05T03:36:48.493Z,2.81
2018-12-05T03:39:15.820Z,2.77
2018-12-05T03:41:43.235Z,2.67
2018-12-05T03:44:10.605Z,2.70
2018-12-05T03:46:37.993Z,2.66
2018-12-05T03:49:05.333Z,2.63
2018-12-05T03:51:32.725Z,2.64
2018-12-05T03:54:00.267Z,2.66
2018-12-05T03:56:27.663Z,2.64
2018-12-05T03:58:55.043Z,2.64
2018-12-05T04:01:22.392Z,2.66
2018-12-05T04:03:49.747Z,2.67
2018-12-05T04:06:17.080Z,2.72
2018-12-05T04:08:44.520Z,2.73
2018-12-05T04:11:11.886Z,2.79
2018-12-05T04:13:39.254Z,2.93
2018-12-05T04:16:06.667Z,2.95
2018-12-05T04:18:34.024Z,2.90
2018-12-05T04:21:01.449Z,2.89
2018-12-05T04:23:28.854Z,2.84
2018-12-05T04:25:56.198Z,2.82
2018-12-05T04:28:23.544Z,2.84
2018-12-05T04:30:50.900Z,2.80
2018-12-05T04:33:18.295Z,2.78
2018-12-05T04:35:45.656Z,2.76
2018-12-05T04:38:13.094Z,2.71
2018-12-05T04:40:40.450Z,2.77
2018-12-05T04:43:07.814Z,2.80
2018-12-05T04:45:35.170Z,2.85
2018-12-05T04:48:02.574Z,2.88
2018-12-05T04:50:29.910Z,2.89
2018-12-05T04:52:57.243Z,2.90
2018-12-05T04:55:24.648Z,2.89
2018-12-05T04:57:52.587Z,2.93
2018-12-05T05:00:20.036Z,3.01
2018-12-05T05:02:47.394Z,2.99
2018-12-05T05:05:14.792Z,2.98
2018-12-05T05:07:42.145Z,3.02
2018-12-05T05:10:11.587Z,2.99
2018-12-05T05:12:38.942Z,3.03
2018-12-05T05:15:06.374Z,3.09
2018-12-05T05:17:33.691Z,3.14
2018-12-05T05:20:01.075Z,3.18
2018-12-05T05:22:28.516Z,3.24
2018-12-05T05:24:55.856Z,3.23
2018-12-05T05:27:23.353Z,3.28
2018-12-05T05:29:50.704Z,3.21
2018-12-05T05:32:18.069Z,3.23
2018-12-05T05:34:45.414Z,3.21
2018-12-05T05:37:12.841Z,3.22
2018-12-05T05:39:40.179Z,3.28
2018-12-05T05:42:07.574Z,3.19
2018-12-05T05:44:34.944Z,3.15
2018-12-05T05:47:02.355Z,3.21
2018-12-05T05:49:29.694Z,3.23
2018-12-05T05:51:57.059Z,3.23
2018-12-05T05:54:24.425Z,3.22
2018-12-05T05:56:51.885Z,3.18
2018-12-05T05:59:19.348Z,3.33
2018-12-05T06:01:46.665Z,3.23
2018-12-05T06:04:14.045Z,3.25
2018-12-05T06:06:41.375Z,3.26
2018-12-05T06:09:08.766Z,3.31
2018-12-05T06:11:36.066Z,3.38
2018-12-05T06:14:03.460Z,3.43
2018-12-05T06:16:30.827Z,3.37
2018-12-05T06:18:58.236Z,3.26
2018-12-05T06:21:25.615Z,3.25
2018-12-05T06:23:53.041Z,3.33
2018-12-05T06:26:20.413Z,3.31
2018-12-05T06:28:47.774Z,3.25
2018-12-05T06:31:15.185Z,3.31
2018-12-05T06:33:42.525Z,3.36
2018-12-05T06:36:09.871Z,3.30
2018-12-05T06:38:37.252Z,3.30
2018-12-05T06:41:04.680Z,3.31
2018-12-05T06:43:32.027Z,3.29
2018-12-05T06:45:59.395Z,3.35
2018-12-05T06:48:26.734Z,3.35
2018-12-05T06:50:54.101Z,3.33
2018-12-05T06:53:21.427Z,3.26
2018-12-05T06:55:48.831Z,3.31
2018-12-05T06:58:16.221Z,3.31
2018-12-05T07:00:43.610Z,3.34
2018-12-05T07:03:11.020Z,3.26
2018-12-05T07:05:38.380Z,3.22
2018-12-05T07:08:05.766Z,3.18
2018-12-05T07:10:33.116Z,3.17
2018-12-05T07:13:00.490Z,3.17
2018-12-05T07:15:27.836Z,3.24
2018-12-05T07:17:55.266Z,3.19
2018-12-05T07:20:22.631Z,3.20
2018-12-05T07:22:49.988Z,3.31
2018-12-05T07:25:17.395Z,3.21
2018-12-05T07:27:44.843Z,3.30
2018-12-05T07:30:12.205Z,3.26
2018-12-05T07:32:39.638Z,3.25
2018-12-05T07:35:07.098Z,3.27
2018-12-05T07:37:34.539Z,3.34
2018-12-05T07:40:01.875Z,3.31
2018-12-05T07:42:29.295Z,3.31
2018-12-05T07:44:56.636Z,3.34
2018-12-05T07:47:24.022Z,3.34
2018-12-05T07:49:51.356Z,3.34
2018-12-05T07:52:18.791Z,3.41
2018-12-05T07:54:46.148Z,3.53
2018-12-05T07:57:13.546Z,3.47
2018-12-05T07:59:40.936Z,3.50
2018-12-05T08:02:08.305Z,3.59
2018-12-05T08:04:35.708Z,3.62
2018-12-05T08:07:03.145Z,3.57
2018-12-05T08:09:30.496Z,3.62
2018-12-05T08:11:57.875Z,3.61
2018-12-05T08:14:25.260Z,3.59
2018-12-05T08:16:52.631Z,3.65
2018-12-05T08:19:19.992Z,3.64
2018-12-05T08:21:47.360Z,3.69
2018-12-05T08:24:14.794Z,3.71
2018-12-05T08:26:42.176Z,3.63
2018-12-05T08:29:10.727Z,3.59
2018-12-05T08:31:38.115Z,3.61
2018-12-05T08:34:05.480Z,3.62
2018-12-05T08:36:32.842Z,3.71
2018-12-05T08:39:00.221Z,3.67
2018-12-05T08:41:27.626Z,3.71
2018-12-05T08:43:55.004Z,3.71
2018-12-05T08:46:22.380Z,3.66
2018-12-05T08:48:49.748Z,3.64
2018-12-05T08:51:17.136Z,3.63
2018-12-05T08:53:44.538Z,3.65
2018-12-05T08:56:11.925Z,3.64
2018-12-05T08:58:39.334Z,3.72
2018-12-05T09:01:06.730Z,3.74
2018-12-05T09:03:34.109Z,3.80
2018-12-05T09:06:01.477Z,3.84
2018-12-05T09:08:28.864Z,3.86
2018-12-05T09:10:56.290Z,3.90
2018-12-05T09:13:23.784Z,3.90
2018-12-05T09:15:51.194Z,3.96
2018-12-05T09:18:18.600Z,4.04
2018-12-05T09:20:45.929Z,4.04
2018-12-05T09:23:13.355Z,4.08
2018-12-05T09:25:40.731Z,4.10
2018-12-05T09:28:08.132Z,4.09
2018-12-05T09:30:35.601Z,4.19
2018-12-05T09:33:03.033Z,4.17
2018-12-05T09:35:30.445Z,4.28
2018-12-05T09:37:57.802Z,4.25
2018-12-05T09:40:25.177Z,4.36
2018-12-05T09:42:52.550Z,4.39
2018-12-05T09:45:19.925Z,4.45
2018-12-05T09:47:47.388Z,4.57
2018-12-05T09:50:14.747Z,4.64
2018-12-05T09:52:42.139Z,4.71
2018-12-05T09:55:09.636Z,4.77
2018-12-05T09:57:37.010Z,4.82
2018-12-05T10:00:05.739Z,4.80
2018-12-05T10:02:33.126Z,4.81
2018-12-05T10:05:00.491Z,4.82
2018-12-05T10:07:27.886Z,4.75
2018-12-05T10:09:55.801Z,4.74
2018-12-05T10:12:23.199Z,4.75
2018-12-05T10:14:50.655Z,4.79
2018-12-05T10:17:18.133Z,4.87
2018-12-05T10:19:45.546Z,4.97
2018-12-05T10:22:12.952Z,5.15
2018-12-05T10:24:40.340Z,5.15
2018-12-05T10:27:07.701Z,5.14
2018-12-05T10:29:35.114Z,5.28
2018-12-05T10:32:02.601Z,5.30
2018-12-05T10:34:29.999Z,5.39
2018-12-05T10:36:57.386Z,5.42
2018-12-05T10:39:24.701Z,5.38
2018-12-05T10:41:52.201Z,5.56
2018-12-05T10:44:19.611Z,5.62
2018-12-05T10:46:46.971Z,5.60
2018-12-05T10:49:14.374Z,5.60
2018-12-05T10:51:41.725Z,5.69
2018-12-05T10:54:09.101Z,5.79
2018-12-05T10:56:36.544Z,5.71
2018-12-05T10:59:04.060Z,5.73
2018-12-05T11:01:37.086Z,5.71
2018-12-05T11:04:08.996Z,5.73
2018-12-05T11:06:42.077Z,5.77
2018-12-05T11:09:15.115Z,5.91
2018-12-05T11:11:48.140Z,6.00
2018-12-05T11:14:21.167Z,5.90
2018-12-05T11:17:51.884Z,6.02
2018-12-05T11:20:24.931Z,5.94
2018-12-05T11:22:58.067Z,5.80
2018-12-05T11:25:25.426Z,5.78
2018-12-05T11:27:52.800Z,5.69
2018-12-05T11:30:20.220Z,5.61
2018-12-05T11:32:47.633Z,5.69
2018-12-05T11:35:15.029Z,5.63
2018-12-05T11:37:42.445Z,5.68
2018-12-05T11:42:47.208Z,5.76
2018-12-05T11:45:14.589Z,5.75
2018-12-05T11:47:41.975Z,5.78
2018-12-05T11:50:09.521Z,5.81
2018-12-05T11:52:36.870Z,5.78
2018-12-05T11:55:04.554Z,5.79
2018-12-05T11:57:31.894Z,5.89
2018-12-05T11:59:59.265Z,5.96
2018-12-05T12:02:26.661Z,5.90
2018-12-05T12:04:54.055Z,5.88
2018-12-05T12:07:21.468Z,5.87
2018-12-05T12:09:48.847Z,5.84
2018-12-05T12:12:21.785Z,5.81
2018-12-05T12:14:49.220Z,5.78
2018-12-05T12:17:16.693Z,5.85
2018-12-05T12:19:44.091Z,5.94
2018-12-05T12:22:11.675Z,6.06
2018-12-05T12:24:39.056Z,6.13
2018-12-05T12:27:06.582Z,6.12
2018-12-05T12:29:33.979Z,6.09
2018-12-05T12:32:01.414Z,6.01
2018-12-05T12:34:28.750Z,5.79
2018-12-05T12:36:56.271Z,5.63
2018-12-05T12:39:23.659Z,5.40
2018-12-05T12:41:51.046Z,5.33
2018-12-05T12:44:18.429Z,5.28
2018-12-05T12:46:45.911Z,5.26
2018-12-05T12:49:13.345Z,5.29
2018-12-05T12:51:40.755Z,5.45
2018-12-05T12:54:08.331Z,5.60
2018-12-05T12:56:35.765Z,5.58
2018-12-05T12:59:03.255Z,5.53
2018-12-05T13:01:30.674Z,5.51
2018-12-05T13:03:58.086Z,5.44
2018-12-05T13:06:25.480Z,5.42
2018-12-05T13:08:52.906Z,5.38
2018-12-05T13:11:20.326Z,5.47
2018-12-05T13:13:47.726Z,5.47
2018-12-05T13:16:15.095Z,5.50
2018-12-05T13:18:42.553Z,5.49
2018-12-05T13:21:09.985Z,5.46
2018-12-05T13:23:37.445Z,5.36
2018-12-05T13:26:04.885Z,5.27
2018-12-05T13:28:32.275Z,5.20
2018-12-05T13:30:59.637Z,5.13
2018-12-05T13:33:27.196Z,5.11
2018-12-05T13:35:54.686Z,5.16
2018-12-05T13:38:22.142Z,5.10
2018-12-05T13:40:49.680Z,5.11
2018-12-05T13:43:17.088Z,5.08
2018-12-05T13:45:44.493Z,5.11
2018-12-05T13:48:11.863Z,5.15
2018-12-05T13:50:39.283Z,5.12
2018-12-05T13:53:06.703Z,5.05
2018-12-05T13:55:34.193Z,5.04
2018-12-05T13:58:01.580Z,5.06
2018-12-05T14:00:29.079Z,5.01
2018-12-05T14:02:56.468Z,4.92
2018-12-05T14:05:23.875Z,4.88
2018-12-05T14:07:51.263Z,4.79
2018-12-05T14:10:22.097Z,4.75
2018-12-05T14:12:49.515Z,4.72
2018-12-05T14:15:16.934Z,4.64
2018-12-05T14:17:44.307Z,4.67
2018-12-05T14:20:11.753Z,4.58
2018-12-05T14:22:39.178Z,4.56
2018-12-05T14:25:07.337Z,4.61
2018-12-05T14:27:35.871Z,4.60
2018-12-05T14:30:03.679Z,4.56
2018-12-05T14:32:31.086Z,4.55
2018-12-05T14:34:58.467Z,4.52
2018-12-05T14:37:27.902Z,4.42
2018-12-05T14:39:55.294Z,4.47
2018-12-05T14:42:22.709Z,4.41
2018-12-05T14:44:50.111Z,4.48
2018-12-05T14:47:18.511Z,4.37
2018-12-05T14:49:45.875Z,4.31
2018-12-05T14:52:13.284Z,4.35
2018-12-05T14:54:40.677Z,4.36
2018-12-05T14:57:08.147Z,4.31
2018-12-05T14:59:35.493Z,4.25
2018-12-05T15:02:02.929Z,4.24
2018-12-05T15:04:35.506Z,4.15
2018-12-05T15:07:03.151Z,4.11
2018-12-05T15:09:30.527Z,4.09
2018-12-05T15:11:57.923Z,4.10
2018-12-05T15:14:25.502Z,4.16
2018-12-05T15:16:52.898Z,4.21
2018-12-05T15:19:25.869Z,4.15
2018-12-05T15:21:56.971Z,4.11
2018-12-05T15:24:24.349Z,4.11
2018-12-05T15:27:03.727Z,4.08
2018-12-05T15:29:31.199Z,4.03
2018-12-05T15:31:58.634Z,4.00
2018-12-05T15:34:26.138Z,4.16
2018-12-05T15:36:53.553Z,4.04
2018-12-05T15:39:21.039Z,4.02
2018-12-05T15:41:48.447Z,4.10
2018-12-05T15:44:15.856Z,4.12
2018-12-05T15:46:43.213Z,4.03
2018-12-05T15:49:10.636Z,4.07
2018-12-05T15:51:38.065Z,3.96
2018-12-05T15:54:05.645Z,3.90
2018-12-05T15:56:33.063Z,3.98
2018-12-05T15:59:00.559Z,4.07
2018-12-05T16:01:27.948Z,4.05
2018-12-05T16:03:55.397Z,4.03
2018-12-05T16:06:22.871Z,3.94
2018-12-05T16:08:50.267Z,3.97
2018-12-05T16:11:17.660Z,3.91
2018-12-05T16:13:45.102Z,3.94
2018-12-05T16:16:20.039Z,3.91
2018-12-05T16:18:47.463Z,3.86
2018-12-05T16:21:14.863Z,3.88
2018-12-05T16:23:42.237Z,3.84
2018-12-05T16:26:10.723Z,3.88
2018-12-05T16:28:38.637Z,3.87
2018-12-05T16:31:06.059Z,3.90
2018-12-05T16:33:33.467Z,3.99
2018-12-05T16:36:00.868Z,4.03
2018-12-05T16:38:28.258Z,3.99
2018-12-05T16:40:55.666Z,3.94
2018-12-05T16:43:23.069Z,3.95
2018-12-05T16:45:50.485Z,3.92
2018-12-05T16:48:17.879Z,3.94
2018-12-05T16:50:45.319Z,3.87
2018-12-05T16:53:12.731Z,3.88
2018-12-05T16:55:40.163Z,3.89
2018-12-05T16:58:07.588Z,3.94
2018-12-05T17:00:34.958Z,3.99
2018-12-05T17:03:02.393Z,4.05
2018-12-05T17:05:29.774Z,4.05
2018-12-05T17:07:57.198Z,4.08
2018-12-05T17:10:24.584Z,4.00
2018-12-05T17:12:52.005Z,3.95
2018-12-05T17:15:19.388Z,3.95
2018-12-05T17:17:46.819Z,3.99
2018-12-05T17:20:14.248Z,4.01
2018-12-05T17:22:41.663Z,3.94
2018-12-05T17:25:09.239Z,3.98
2018-12-05T17:27:36.656Z,3.93
2018-12-05T17:30:04.728Z,4.05
2018-12-05T17:32:32.105Z,4.02
2018-12-05T17:34:59.553Z,4.04
2018-12-05T17:37:27.045Z,4.09
2018-12-05T17:39:54.502Z,4.12
2018-12-05T17:42:22.103Z,4.11
2018-12-05T17:44:49.718Z,4.08
2018-12-05T17:47:17.110Z,4.05
2018-12-05T17:49:44.541Z,4.06
2018-12-05T17:52:11.944Z,4.11
2018-12-05T17:54:39.379Z,4.04
2018-12-05T17:57:06.883Z,4.12
2018-12-05T17:59:34.366Z,4.15
2018-12-05T18:02:01.805Z,4.26
2018-12-05T18:04:29.238Z,4.12
2018-12-05T18:06:56.752Z,4.13
2018-12-05T18:09:24.178Z,4.14
2018-12-05T18:11:51.601Z,4.15
2018-12-05T18:14:19.261Z,4.14
2018-12-05T18:16:46.695Z,4.17
2018-12-05T18:19:14.105Z,4.06
2018-12-05T18:21:41.705Z,4.04
2018-12-05T18:24:09.373Z,4.02
2018-12-05T18:26:36.898Z,3.97
2018-12-05T18:29:04.388Z,3.89
2018-12-05T18:31:31.947Z,3.85
2018-12-05T18:33:59.365Z,3.87
2018-12-05T18:36:26.805Z,3.84
2018-12-05T18:38:54.238Z,3.86
2018-12-05T18:41:21.680Z,3.87
2018-12-05T18:43:49.116Z,3.90
2018-12-05T18:46:16.522Z,3.95
2018-12-05T18:48:43.960Z,3.93
2018-12-05T18:51:11.395Z,3.96
2018-12-05T18:53:38.831Z,3.94
2018-12-05T18:56:06.309Z,3.96
2018-12-05T18:58:33.745Z,4.03
2018-12-05T19:01:01.198Z,4.02
2018-12-05T19:03:28.589Z,3.98
2018-12-05T19:05:55.948Z,3.96
2018-12-05T19:08:23.359Z,3.95
2018-12-05T19:10:50.808Z,3.92
2018-12-05T19:13:18.254Z,3.98
2018-12-05T19:15:45.658Z,4.00
2018-12-05T19:18:13.113Z,3.97
2018-12-05T19:20:40.485Z,3.96
2018-12-05T19:23:07.885Z,3.95
2018-12-05T19:25:35.323Z,3.91
2018-12-05T19:28:02.812Z,4.01
2018-12-05T19:30:30.205Z,4.05
2018-12-05T19:32:57.669Z,4.02
2018-12-05T19:35:25.060Z,4.02
2018-12-05T19:37:52.500Z,4.04
2018-12-05T19:40:20.104Z,4.13
2018-12-05T19:42:47.549Z,4.18
2018-12-05T19:45:14.980Z,4.22
2018-12-05T19:47:42.396Z,4.22
2018-12-05T19:50:09.943Z,4.12
2018-12-05T19:52:37.354Z,4.09
2018-12-05T19:55:04.939Z,4.07
2018-12-05T19:57:32.377Z,4.12
2018-12-05T19:59:59.823Z,4.12
2018-12-05T20:02:27.225Z,4.17
2018-12-05T20:04:54.643Z,4.07
2018-12-05T20:07:22.078Z,4.04
2018-12-05T20:09:49.539Z,4.18
2018-12-05T20:12:16.989Z,4.20
2018-12-05T20:14:44.424Z,4.14
2018-12-05T20:17:11.840Z,4.07
2018-12-05T20:19:39.336Z,4.05
2018-12-05T20:22:06.802Z,4.07
2018-12-05T20:24:34.251Z,4.03
2018-12-05T20:27:04.904Z,4.09
2018-12-05T20:29:32.489Z,4.08
2018-12-05T20:31:59.920Z,4.05
2018-12-05T20:34:27.324Z,4.09
2018-12-05T20:36:59.888Z,4.20
2018-12-05T20:39:27.285Z,4.19
2018-12-05T20:42:00.870Z,4.20
2018-12-05T20:44:28.294Z,4.23
2018-12-05T20:47:05.298Z,4.24
2018-12-05T20:49:32.724Z,4.20
2018-12-05T20:52:00.134Z,4.23
2018-12-05T20:54:27.533Z,4.24
2018-12-05T20:57:04.053Z,4.21
2018-12-05T20:59:31.475Z,4.20
2018-12-05T21:01:58.951Z,4.17
2018-12-05T21:04:30.084Z,4.20
2018-12-05T21:07:05.149Z,4.25
2018-12-05T21:09:38.797Z,4.27
2018-12-05T21:12:06.231Z,4.29
2018-12-05T21:14:33.670Z,4.26
2018-12-05T21:17:01.058Z,4.23
2018-12-05T21:19:28.464Z,4.23
2018-12-05T21:21:55.850Z,4.24
2018-12-05T21:24:23.264Z,4.21
2018-12-05T21:26:50.661Z,4.24
2018-12-05T21:29:18.076Z,4.25
2018-12-05T21:31:45.461Z,4.23
2018-12-05T21:34:12.872Z,4.27
2018-12-05T21:36:45.600Z,4.29
2018-12-05T21:39:13.023Z,4.25
2018-12-05T21:41:40.439Z,4.25
2018-12-05T21:44:07.889Z,4.24
2018-12-05T21:46:35.391Z,4.29
2018-12-05T21:49:02.937Z,4.27
2018-12-05T21:51:30.320Z,4.30
2018-12-05T21:53:57.783Z,4.31
2018-12-05T21:56:25.361Z,4.38
2018-12-05T21:58:52.752Z,4.33
2018-12-05T22:01:20.216Z,4.28
2018-12-05T22:03:47.584Z,4.28
2018-12-05T22:06:22.853Z,4.28
2018-12-05T22:08:52.011Z,4.32
2018-12-05T22:11:22.801Z,4.18
2018-12-05T22:13:50.164Z,4.14
2018-12-05T22:16:25.290Z,4.18
2018-12-05T22:18:52.733Z,4.08
2018-12-05T22:21:20.097Z,4.02
2018-12-05T22:23:47.620Z,3.99
2018-12-05T22:26:19.950Z,3.96
2018-12-05T22:28:47.350Z,3.93
2018-12-05T22:31:14.777Z,3.89
2018-12-05T22:33:42.417Z,3.94
2018-12-05T22:36:10.520Z,3.97
2018-12-05T22:38:37.895Z,4.03
2018-12-05T22:41:08.987Z,4.07
2018-12-05T22:43:36.585Z,4.06
2018-12-05T22:46:04.061Z,4.07
2018-12-05T22:48:33.121Z,4.09
2018-12-05T22:51:00.600Z,4.13
2018-12-05T22:53:27.979Z,4.08
2018-12-05T22:55:55.390Z,4.14
2018-12-05T22:58:22.779Z,4.13
2018-12-05T23:00:53.208Z,4.15
2018-12-05T23:03:20.604Z,4.14
2018-12-05T23:05:47.999Z,4.18
2018-12-05T23:08:19.419Z,4.18
2018-12-05T23:10:46.774Z,4.23
2018-12-05T23:13:14.223Z,4.25
2018-12-05T23:15:41.588Z,4.24
2018-12-05T23:18:08.994Z,4.29
2018-12-05T23:20:36.336Z,4.27
2018-12-05T23:23:03.735Z,4.31
2018-12-05T23:25:31.120Z,4.33
2018-12-05T23:28:08.208Z,4.34
2018-12-05T23:30:35.730Z,4.34
2018-12-05T23:33:03.120Z,4.33
2018-12-05T23:35:30.474Z,4.34
2018-12-05T23:37:58.927Z,4.38
2018-12-05T23:40:26.327Z,4.39
2018-12-05T23:42:53.688Z,4.36
2018-12-05T23:45:21.100Z,4.36
2018-12-05T23:47:48.471Z,4.31
2018-12-05T23:50:15.866Z,4.28
2018-12-05T23:52:43.219Z,4.28
2018-12-05T23:55:10.616Z,4.30
2018-12-05T23:57:38.018Z,4.35
